TIGER1 VVTS-VVTS
Flight info
| Callsign | TIGER1 |
|---|---|
| Flight time | N/A |
| Altitude | 10000 |
| Route | IFR LOCAL |
| Aircraft | C130/H-VGDW/C |
Departure
| Time | 2026-05-05 15:44 |
|---|---|
| Airport | Tan Son Nhat International Airport (VVTS) |
Arrival
| Time | N/A |
|---|---|
| Airport | Tan Son Nhat International Airport (VVTS) |
| Time | Latitude | Longitude | Altitude | Speed | Heading |
|---|---|---|---|---|---|
| 2026-05-05 15:31 | 10.82091 | 106.66826 | 50 ft | 0 kts | 8° |
| 2026-05-05 15:35 | 10.82092 | 106.66826 | 50 ft | 0 kts | 8° |
| 2026-05-05 15:39 | 10.82140 | 106.66837 | 50 ft | 9 kts | 26° |
| 2026-05-05 15:40 | 10.82172 | 106.66893 | 50 ft | 14 kts | 69° |
| 2026-05-05 15:40 | 10.82216 | 106.66998 | 50 ft | 13 kts | 54° |
| 2026-05-05 15:40 | 10.82288 | 106.66996 | 50 ft | 12 kts | 317° |
| 2026-05-05 15:40 | 10.82294 | 106.66990 | 50 ft | 0 kts | 316° |
| 2026-05-05 15:42 | 10.82297 | 106.66987 | 50 ft | 7 kts | 316° |
| 2026-05-05 15:43 | 10.82337 | 106.66875 | 50 ft | 16 kts | 255° |
| 2026-05-05 15:43 | 10.82275 | 106.66701 | 50 ft | 49 kts | 251° |
| 2026-05-05 15:43 | 10.82064 | 106.66140 | 50 ft | 115 kts | 249° |
| 2026-05-05 15:43 | 10.81726 | 106.65260 | 50 ft | 148 kts | 250° |
| 2026-05-05 15:44 | 10.81361 | 106.64270 | 308 ft | 149 kts | 250° |
| 2026-05-05 15:44 | 10.80979 | 106.63288 | 675 ft | 149 kts | 249° |
| 2026-05-05 15:44 | 10.80551 | 106.62229 | 787 ft | 184 kts | 248° |
| 2026-05-05 15:44 | 10.80013 | 106.60910 | 834 ft | 217 kts | 248° |
| 2026-05-05 15:45 | 10.79468 | 106.59564 | 1067 ft | 230 kts | 248° |
| 2026-05-05 15:45 | 10.78865 | 106.58065 | 1657 ft | 226 kts | 248° |
| 2026-05-05 15:45 | 10.78293 | 106.56609 | 2414 ft | 218 kts | 248° |
| 2026-05-05 15:45 | 10.77756 | 106.55189 | 3131 ft | 214 kts | 247° |
| 2026-05-05 15:46 | 10.77404 | 106.54245 | 3551 ft | 215 kts | 247° |
| 2026-05-05 15:46 | 10.76922 | 106.52965 | 4005 ft | 224 kts | 248° |
| 2026-05-05 15:46 | 10.76684 | 106.51288 | 3948 ft | 254 kts | 271° |
| 2026-05-05 15:46 | 10.77113 | 106.49503 | 4124 ft | 267 kts | 294° |
| 2026-05-05 15:47 | 10.78175 | 106.47920 | 4158 ft | 275 kts | 319° |
| 2026-05-05 15:47 | 10.79182 | 106.47183 | 4558 ft | 269 kts | 332° |
| 2026-05-05 15:47 | 10.81586 | 106.46960 | 4722 ft | 270 kts | 16° |
| 2026-05-05 15:47 | 10.83239 | 106.47832 | 5120 ft | 260 kts | 40° |
| 2026-05-05 15:48 | 10.84373 | 106.49172 | 5530 ft | 259 kts | 56° |
| 2026-05-05 15:48 | 10.85225 | 106.50920 | 4787 ft | 296 kts | 70° |
| 2026-05-05 15:48 | 10.85830 | 106.52847 | 5565 ft | 269 kts | 73° |
| 2026-05-05 15:48 | 10.86421 | 106.54663 | 5777 ft | 276 kts | 68° |
| 2026-05-05 15:49 | 10.87126 | 106.56530 | 5634 ft | 292 kts | 70° |
| 2026-05-05 15:49 | 10.87596 | 106.57852 | 5413 ft | 303 kts | 71° |
| 2026-05-05 15:49 | 10.88282 | 106.59887 | 5493 ft | 302 kts | 72° |
| 2026-05-05 15:49 | 10.88940 | 106.61903 | 5150 ft | 308 kts | 72° |
| 2026-05-05 15:50 | 10.89645 | 106.63995 | 4988 ft | 314 kts | 71° |
| 2026-05-05 15:50 | 10.90289 | 106.66086 | 5168 ft | 308 kts | 77° |
| 2026-05-05 15:50 | 10.90397 | 106.68224 | 5364 ft | 302 kts | 93° |
| 2026-05-05 15:50 | 10.89949 | 106.70331 | 5079 ft | 313 kts | 102° |
| 2026-05-05 15:51 | 10.89474 | 106.72546 | 4538 ft | 328 kts | 102° |
| 2026-05-05 15:51 | 10.88995 | 106.74843 | 3916 ft | 340 kts | 102° |
| 2026-05-05 15:51 | 10.88785 | 106.77249 | 3480 ft | 341 kts | 89° |
| 2026-05-05 15:51 | 10.89074 | 106.79654 | 3020 ft | 343 kts | 82° |
| 2026-05-05 15:52 | 10.89466 | 106.82064 | 2506 ft | 345 kts | 81° |
| 2026-05-05 15:52 | 10.89745 | 106.84429 | 2656 ft | 324 kts | 88° |
| 2026-05-05 15:52 | 10.89621 | 106.86614 | 3292 ft | 303 kts | 95° |
| 2026-05-05 15:52 | 10.89431 | 106.88741 | 3382 ft | 299 kts | 96° |
| 2026-05-05 15:53 | 10.89148 | 106.90825 | 3577 ft | 296 kts | 98° |
| 2026-05-05 15:53 | 10.88821 | 106.92904 | 3507 ft | 301 kts | 99° |
| 2026-05-05 15:53 | 10.88237 | 106.95802 | 3245 ft | 310 kts | 103° |
| 2026-05-05 15:53 | 10.86592 | 106.99939 | 2771 ft | 320 kts | 115° |
| 2026-05-05 15:54 | 10.85276 | 107.02635 | 2471 ft | 323 kts | 116° |
| 2026-05-05 15:54 | 10.84153 | 107.04460 | 2044 ft | 263 kts | 124° |
| 2026-05-05 15:54 | 10.83198 | 107.05491 | 1947 ft | 157 kts | 137° |
| 2026-05-05 15:54 | 10.82273 | 107.05939 | 1671 ft | 148 kts | 153° |
| 2026-05-05 15:55 | 10.81250 | 107.06257 | 1169 ft | 146 kts | 163° |
| 2026-05-05 15:55 | 10.80327 | 107.06030 | 638 ft | 149 kts | 204° |
| 2026-05-05 15:55 | 10.79496 | 107.05484 | 278 ft | 131 kts | 217° |
| 2026-05-05 15:55 | 10.79003 | 107.04874 | 214 ft | 91 kts | 229° |
| 2026-05-05 15:56 | 10.78773 | 107.04568 | 213 ft | 8 kts | 233° |
| 2026-05-05 15:56 | 10.78753 | 107.04539 | 214 ft | 21 kts | 237° |
| 2026-05-05 15:56 | 10.78530 | 107.04199 | 214 ft | 95 kts | 231° |
| 2026-05-05 15:56 | 10.78053 | 107.03507 | 233 ft | 136 kts | 234° |
| 2026-05-05 15:57 | 10.77570 | 107.02664 | 469 ft | 147 kts | 244° |
| 2026-05-05 15:57 | 10.77533 | 107.01487 | 472 ft | 183 kts | 280° |
| 2026-05-05 15:57 | 10.78177 | 107.00350 | 744 ft | 200 kts | 312° |
| 2026-05-05 15:57 | 10.79242 | 106.99383 | 1141 ft | 209 kts | 320° |
| 2026-05-05 15:58 | 10.80343 | 106.98384 | 1579 ft | 218 kts | 320° |
| 2026-05-05 15:58 | 10.81495 | 106.97339 | 2147 ft | 224 kts | 321° |
| 2026-05-05 15:58 | 10.82679 | 106.96289 | 2766 ft | 227 kts | 322° |
| 2026-05-05 15:58 | 10.83890 | 106.95257 | 3381 ft | 226 kts | 323° |
| 2026-05-05 15:59 | 10.85099 | 106.94239 | 4038 ft | 225 kts | 323° |
| 2026-05-05 15:59 | 10.86310 | 106.93242 | 4710 ft | 223 kts | 324° |
| 2026-05-05 15:59 | 10.87540 | 106.92267 | 5348 ft | 224 kts | 325° |
| 2026-05-05 15:59 | 10.88788 | 106.91317 | 5926 ft | 225 kts | 326° |
| 2026-05-05 16:00 | 10.90051 | 106.90397 | 6494 ft | 227 kts | 327° |
| 2026-05-05 16:00 | 10.91360 | 106.89479 | 7119 ft | 230 kts | 328° |
| 2026-05-05 16:00 | 10.92703 | 106.88567 | 7723 ft | 232 kts | 328° |
| 2026-05-05 16:00 | 10.94042 | 106.87616 | 8063 ft | 245 kts | 323° |
| 2026-05-05 16:01 | 10.95164 | 106.86045 | 6569 ft | 313 kts | 297° |
| 2026-05-05 16:01 | 10.95363 | 106.83712 | 5340 ft | 356 kts | 262° |
| 2026-05-05 16:01 | 10.94486 | 106.81298 | 4552 ft | 369 kts | 239° |
| 2026-05-05 16:01 | 10.92909 | 106.79221 | 3791 ft | 375 kts | 224° |
| 2026-05-05 16:02 | 10.90950 | 106.77441 | 3167 ft | 378 kts | 219° |
| 2026-05-05 16:02 | 10.89015 | 106.75715 | 2737 ft | 358 kts | 219° |
| 2026-05-05 16:02 | 10.87179 | 106.74118 | 2249 ft | 337 kts | 218° |
| 2026-05-05 16:02 | 10.85685 | 106.72808 | 2077 ft | 223 kts | 221° |
| 2026-05-05 16:03 | 10.84883 | 106.71757 | 1845 ft | 171 kts | 236° |
| 2026-05-05 16:03 | 10.84337 | 106.70724 | 1572 ft | 159 kts | 240° |
| 2026-05-05 16:03 | 10.83899 | 106.69725 | 1202 ft | 155 kts | 248° |
| 2026-05-05 16:03 | 10.83608 | 106.69094 | 1007 ft | 152 kts | 244° |
| 2026-05-05 16:04 | 10.83571 | 106.69030 | 987 ft | 151 kts | 243° |
| 2026-05-05 16:04 | 10.83147 | 106.68076 | 684 ft | 148 kts | 251° |
| 2026-05-05 16:04 | 10.82773 | 106.67100 | 350 ft | 148 kts | 248° |
| 2026-05-05 16:05 | 10.82438 | 106.66206 | 62 ft | 121 kts | 251° |
| 2026-05-05 16:05 | 10.82185 | 106.65542 | 50 ft | 76 kts | 252° |
| 2026-05-05 16:05 | 10.82041 | 106.65125 | 50 ft | 50 kts | 253° |
| 2026-05-05 16:05 | 10.81904 | 106.64750 | 50 ft | 60 kts | 250° |